Aérodrome :
LOGIN :

S'inscrire | Disclaimer

   EN    FR    IT 

 










Légende :    VFR   VFR Marginal   IFR   IFR Intensif   IFR Très Intensif
Visi : 
Plafond : 
>= 8 km
>= 3000ft
5 à 8 km
1000 à 3000 ft
1500m à 5 km
500 à 1000 ft
800 à 1500m
200 à 500 ft
< 800m
< 200 ft
Symboles :   Orages  Brouillard  Fortes neiges  Fortes précipitations  Vent > 20 kt
SIGMETs :   Divers  Orages  Givrage  Turbulence  Onde Orograph.  Cendres Volcan.






- Altitude de l'aérodrome : 37 ft


EHVL - Vlieland Heliport

DERNIER METAR :
  • 201925Z AUTO 05006KT 8000 BR OVC240 08/08 Q1012 BLU

METARs EXPIRÉS :
  • 201911Z AUTO 05007KT 7000 BR OVC270 08/08 Q1011 WHT
  • 201904Z AUTO 05007KT 8000 BR OVC270 08/08 Q1012 BLU
  • 201855Z AUTO 05006KT 8000 BR OVC270 08/08 Q1011 BLU
  • 201825Z AUTO 04006KT 5000 BR OVC270 09/08 Q1011 WHT
  • 201808Z AUTO 04006KT 6000 BR OVC270 08/08 Q1011 WHT
  • 201755Z AUTO 05006KT 6000 BR OVC260 08/07 Q1011 WHT
  • 201742Z AUTO 04005KT 7000 BR OVC280 08/08 Q1011 WHT
  • 201725Z AUTO 05005KT 9999 OVC270 09/08 Q1011 BLU
  • 201655Z AUTO 06004KT 9999 OVC320 09/09 Q1011 BLU

Prévision TAF périmée.



MET'MAP, la Météo Aéronautique d'un coup d'oeil ! - Copyright ORBIFLY Décembre 2007 - Disclaimer

ORBIFLY MET'MAP TEAM :

Programmation & Développement : Alexandra Zaïnal
Conception & Développement : Baudouin d'Aumeries
Co-Programmation & Développement : Marc-Olivier Méhu
Soutien technique & logistique : Manuel Goepfert

Contact : metmap@orbifly.com




SOURCES & CREDITS :

   NOAA